sensor_id;sensor_type;location;lat;lon;timestamp;P1;durP1;ratioP1;P2;durP2;ratioP2
74503;SDS011;62988;55.776;37.544;2023-12-20T00:00:39;2.03;;;0.57;;
74503;SDS011;62988;55.776;37.544;2023-12-20T00:03:04;1.70;;;0.50;;
74503;SDS011;62988;55.776;37.544;2023-12-20T00:05:30;1.15;;;0.47;;
74503;SDS011;62988;55.776;37.544;2023-12-20T00:07:59;1.50;;;0.60;;
74503;SDS011;62988;55.776;37.544;2023-12-20T00:10:25;1.48;;;0.63;;
74503;SDS011;62988;55.776;37.544;2023-12-20T00:12:50;1.57;;;0.50;;
74503;SDS011;62988;55.776;37.544;2023-12-20T00:15:15;1.47;;;0.60;;
74503;SDS011;62988;55.776;37.544;2023-12-20T00:17:41;1.90;;;0.70;;
74503;SDS011;62988;55.776;37.544;2023-12-20T00:20:06;3.80;;;0.70;;
74503;SDS011;62988;55.776;37.544;2023-12-20T00:22:32;3.00;;;0.88;;
74503;SDS011;62988;55.776;37.544;2023-12-20T00:24:57;1.67;;;0.67;;
74503;SDS011;62988;55.776;37.544;2023-12-20T00:27:22;2.60;;;1.10;;
74503;SDS011;62988;55.776;37.544;2023-12-20T00:29:48;4.25;;;1.00;;
74503;SDS011;62988;55.776;37.544;2023-12-20T00:32:15;2.55;;;1.02;;
74503;SDS011;62988;55.776;37.544;2023-12-20T00:34:40;2.47;;;1.20;;
74503;SDS011;62988;55.776;37.544;2023-12-20T00:37:05;2.57;;;1.33;;
74503;SDS011;62988;55.776;37.544;2023-12-20T00:39:31;2.73;;;1.37;;
74503;SDS011;62988;55.776;37.544;2023-12-20T00:41:58;2.65;;;1.00;;
74503;SDS011;62988;55.776;37.544;2023-12-20T00:44:23;2.22;;;1.17;;
74503;SDS011;62988;55.776;37.544;2023-12-20T00:46:48;2.17;;;0.90;;
74503;SDS011;62988;55.776;37.544;2023-12-20T00:49:14;1.83;;;0.90;;
74503;SDS011;62988;55.776;37.544;2023-12-20T00:51:39;2.17;;;1.17;;
74503;SDS011;62988;55.776;37.544;2023-12-20T00:54:05;2.37;;;0.70;;
74503;SDS011;62988;55.776;37.544;2023-12-20T00:56:30;2.77;;;1.17;;
74503;SDS011;62988;55.776;37.544;2023-12-20T00:58:55;2.13;;;1.10;;
74503;SDS011;62988;55.776;37.544;2023-12-20T01:01:21;3.80;;;1.10;;
74503;SDS011;62988;55.776;37.544;2023-12-20T01:03:46;3.40;;;1.30;;
74503;SDS011;62988;55.776;37.544;2023-12-20T01:06:12;4.25;;;1.50;;
74503;SDS011;62988;55.776;37.544;2023-12-20T01:08:37;2.65;;;0.98;;
74503;SDS011;62988;55.776;37.544;2023-12-20T01:11:05;2.60;;;1.17;;
74503;SDS011;62988;55.776;37.544;2023-12-20T01:13:31;2.90;;;1.10;;
74503;SDS011;62988;55.776;37.544;2023-12-20T01:15:56;3.40;;;1.03;;
74503;SDS011;62988;55.776;37.544;2023-12-20T01:18:21;2.67;;;1.10;;
74503;SDS011;62988;55.776;37.544;2023-12-20T01:20:47;2.53;;;1.10;;
74503;SDS011;62988;55.776;37.544;2023-12-20T01:23:12;1.90;;;0.90;;
74503;SDS011;62988;55.776;37.544;2023-12-20T01:25:38;3.57;;;1.00;;
74503;SDS011;62988;55.776;37.544;2023-12-20T01:28:04;1.88;;;0.80;;
74503;SDS011;62988;55.776;37.544;2023-12-20T01:30:29;2.70;;;0.80;;
74503;SDS011;62988;55.776;37.544;2023-12-20T01:32:54;2.10;;;0.97;;
74503;SDS011;62988;55.776;37.544;2023-12-20T01:35:20;2.40;;;0.95;;
74503;SDS011;62988;55.776;37.544;2023-12-20T01:37:45;3.13;;;1.10;;
74503;SDS011;62988;55.776;37.544;2023-12-20T01:40:11;2.20;;;1.10;;
74503;SDS011;62988;55.776;37.544;2023-12-20T01:42:36;1.93;;;0.73;;
74503;SDS011;62988;55.776;37.544;2023-12-20T01:45:01;2.20;;;0.80;;
74503;SDS011;62988;55.776;37.544;2023-12-20T01:47:27;2.13;;;0.60;;
74503;SDS011;62988;55.776;37.544;2023-12-20T01:49:53;1.98;;;0.70;;
74503;SDS011;62988;55.776;37.544;2023-12-20T01:52:19;2.22;;;0.80;;
74503;SDS011;62988;55.776;37.544;2023-12-20T01:54:45;2.78;;;1.02;;
74503;SDS011;62988;55.776;37.544;2023-12-20T01:57:10;1.55;;;0.68;;
74503;SDS011;62988;55.776;37.544;2023-12-20T01:59:36;1.55;;;0.55;;
74503;SDS011;62988;55.776;37.544;2023-12-20T02:02:02;2.13;;;0.80;;
74503;SDS011;62988;55.776;37.544;2023-12-20T02:04:28;2.67;;;0.68;;
74503;SDS011;62988;55.776;37.544;2023-12-20T02:06:54;1.73;;;0.50;;
74503;SDS011;62988;55.776;37.544;2023-12-20T02:09:21;2.17;;;0.60;;
74503;SDS011;62988;55.776;37.544;2023-12-20T02:11:47;1.25;;;0.45;;
74503;SDS011;62988;55.776;37.544;2023-12-20T02:14:13;1.33;;;0.40;;
74503;SDS011;62988;55.776;37.544;2023-12-20T02:16:38;1.48;;;0.45;;
74503;SDS011;62988;55.776;37.544;2023-12-20T02:19:04;2.15;;;0.65;;
74503;SDS011;62988;55.776;37.544;2023-12-20T02:21:32;1.92;;;0.70;;
74503;SDS011;62988;55.776;37.544;2023-12-20T02:23:59;2.15;;;0.60;;
74503;SDS011;62988;55.776;37.544;2023-12-20T02:26:24;2.77;;;0.73;;
74503;SDS011;62988;55.776;37.544;2023-12-20T02:28:49;1.25;;;0.57;;
74503;SDS011;62988;55.776;37.544;2023-12-20T02:31:15;2.10;;;0.57;;
74503;SDS011;62988;55.776;37.544;2023-12-20T02:33:40;2.50;;;0.70;;
74503;SDS011;62988;55.776;37.544;2023-12-20T02:36:07;1.95;;;0.60;;
74503;SDS011;62988;55.776;37.544;2023-12-20T02:38:32;2.97;;;0.63;;
74503;SDS011;62988;55.776;37.544;2023-12-20T02:40:58;4.25;;;0.88;;
74503;SDS011;62988;55.776;37.544;2023-12-20T02:43:24;2.63;;;1.00;;
74503;SDS011;62988;55.776;37.544;2023-12-20T02:45:49;2.10;;;0.77;;
74503;SDS011;62988;55.776;37.544;2023-12-20T02:48:15;2.50;;;0.80;;
74503;SDS011;62988;55.776;37.544;2023-12-20T02:50:40;2.15;;;0.98;;
74503;SDS011;62988;55.776;37.544;2023-12-20T02:53:05;2.93;;;0.70;;
74503;SDS011;62988;55.776;37.544;2023-12-20T02:55:31;1.97;;;0.47;;
74503;SDS011;62988;55.776;37.544;2023-12-20T02:57:56;2.30;;;0.60;;
74503;SDS011;62988;55.776;37.544;2023-12-20T03:00:21;2.37;;;0.70;;
74503;SDS011;62988;55.776;37.544;2023-12-20T03:02:46;2.73;;;0.70;;
74503;SDS011;62988;55.776;37.544;2023-12-20T03:05:12;2.40;;;0.73;;
74503;SDS011;62988;55.776;37.544;2023-12-20T03:07:37;2.00;;;1.00;;
74503;SDS011;62988;55.776;37.544;2023-12-20T03:10:03;2.65;;;0.90;;
74503;SDS011;62988;55.776;37.544;2023-12-20T03:12:29;2.78;;;1.13;;
74503;SDS011;62988;55.776;37.544;2023-12-20T03:14:54;2.63;;;0.80;;
74503;SDS011;62988;55.776;37.544;2023-12-20T03:17:19;5.13;;;0.80;;
74503;SDS011;62988;55.776;37.544;2023-12-20T03:19:46;3.55;;;0.90;;
74503;SDS011;62988;55.776;37.544;2023-12-20T03:22:11;3.40;;;1.03;;
74503;SDS011;62988;55.776;37.544;2023-12-20T03:24:36;3.27;;;1.10;;
74503;SDS011;62988;55.776;37.544;2023-12-20T03:27:02;4.97;;;0.90;;
74503;SDS011;62988;55.776;37.544;2023-12-20T03:29:27;4.20;;;1.02;;
74503;SDS011;62988;55.776;37.544;2023-12-20T03:31:52;3.23;;;0.93;;
74503;SDS011;62988;55.776;37.544;2023-12-20T03:34:18;3.83;;;1.20;;
74503;SDS011;62988;55.776;37.544;2023-12-20T03:36:43;4.77;;;1.33;;
74503;SDS011;62988;55.776;37.544;2023-12-20T03:39:09;4.65;;;1.05;;
74503;SDS011;62988;55.776;37.544;2023-12-20T03:41:35;3.00;;;1.05;;
74503;SDS011;62988;55.776;37.544;2023-12-20T03:44:00;5.70;;;1.70;;
74503;SDS011;62988;55.776;37.544;2023-12-20T03:46:26;2.63;;;1.03;;
74503;SDS011;62988;55.776;37.544;2023-12-20T03:48:51;3.88;;;1.00;;
74503;SDS011;62988;55.776;37.544;2023-12-20T03:51:16;1.90;;;0.93;;
74503;SDS011;62988;55.776;37.544;2023-12-20T03:53:42;2.20;;;0.83;;
74503;SDS011;62988;55.776;37.544;2023-12-20T03:56:07;1.60;;;0.80;;
74503;SDS011;62988;55.776;37.544;2023-12-20T03:58:33;2.58;;;1.10;;
74503;SDS011;62988;55.776;37.544;2023-12-20T04:00:58;2.93;;;1.10;;
74503;SDS011;62988;55.776;37.544;2023-12-20T04:03:23;3.83;;;1.07;;
74503;SDS011;62988;55.776;37.544;2023-12-20T04:05:49;2.17;;;0.95;;
74503;SDS011;62988;55.776;37.544;2023-12-20T04:08:14;2.17;;;0.80;;
74503;SDS011;62988;55.776;37.544;2023-12-20T04:10:40;7.87;;;1.40;;
74503;SDS011;62988;55.776;37.544;2023-12-20T04:13:05;3.50;;;1.35;;
74503;SDS011;62988;55.776;37.544;2023-12-20T04:15:31;2.70;;;1.57;;
74503;SDS011;62988;55.776;37.544;2023-12-20T04:17:56;2.95;;;1.25;;
74503;SDS011;62988;55.776;37.544;2023-12-20T04:20:21;5.27;;;1.30;;
74503;SDS011;62988;55.776;37.544;2023-12-20T04:22:47;2.37;;;1.20;;
74503;SDS011;62988;55.776;37.544;2023-12-20T04:25:12;12.43;;;1.73;;
74503;SDS011;62988;55.776;37.544;2023-12-20T04:27:37;9.02;;;1.55;;
74503;SDS011;62988;55.776;37.544;2023-12-20T04:30:03;5.18;;;1.75;;
74503;SDS011;62988;55.776;37.544;2023-12-20T04:32:28;2.65;;;1.30;;
74503;SDS011;62988;55.776;37.544;2023-12-20T04:34:54;3.27;;;1.57;;
74503;SDS011;62988;55.776;37.544;2023-12-20T04:37:19;3.07;;;1.40;;
74503;SDS011;62988;55.776;37.544;2023-12-20T04:39:44;3.50;;;1.30;;
74503;SDS011;62988;55.776;37.544;2023-12-20T04:42:10;6.80;;;1.38;;
74503;SDS011;62988;55.776;37.544;2023-12-20T04:44:35;3.10;;;1.20;;
74503;SDS011;62988;55.776;37.544;2023-12-20T04:47:01;4.63;;;1.30;;
74503;SDS011;62988;55.776;37.544;2023-12-20T04:49:26;3.25;;;1.15;;
74503;SDS011;62988;55.776;37.544;2023-12-20T04:51:52;3.00;;;1.50;;
74503;SDS011;62988;55.776;37.544;2023-12-20T04:54:17;4.47;;;1.38;;
74503;SDS011;62988;55.776;37.544;2023-12-20T04:56:43;2.67;;;1.30;;
74503;SDS011;62988;55.776;37.544;2023-12-20T04:59:08;2.90;;;1.30;;
74503;SDS011;62988;55.776;37.544;2023-12-20T05:01:33;2.90;;;1.40;;
74503;SDS011;62988;55.776;37.544;2023-12-20T05:03:59;3.30;;;1.40;;
74503;SDS011;62988;55.776;37.544;2023-12-20T05:06:24;3.22;;;1.80;;
74503;SDS011;62988;55.776;37.544;2023-12-20T05:08:49;4.33;;;1.23;;
74503;SDS011;62988;55.776;37.544;2023-12-20T05:11:15;4.47;;;1.63;;
74503;SDS011;62988;55.776;37.544;2023-12-20T05:13:41;4.78;;;2.00;;
74503;SDS011;62988;55.776;37.544;2023-12-20T05:16:06;5.03;;;1.73;;
74503;SDS011;62988;55.776;37.544;2023-12-20T05:18:32;5.60;;;1.83;;
74503;SDS011;62988;55.776;37.544;2023-12-20T05:20:57;4.50;;;1.95;;
74503;SDS011;62988;55.776;37.544;2023-12-20T05:23:23;6.25;;;2.08;;
74503;SDS011;62988;55.776;37.544;2023-12-20T05:25:48;7.50;;;2.00;;
74503;SDS011;62988;55.776;37.544;2023-12-20T05:28:14;4.40;;;1.92;;
74503;SDS011;62988;55.776;37.544;2023-12-20T05:30:40;5.90;;;1.77;;
74503;SDS011;62988;55.776;37.544;2023-12-20T05:33:05;3.63;;;1.37;;
74503;SDS011;62988;55.776;37.544;2023-12-20T05:35:30;6.67;;;1.60;;
74503;SDS011;62988;55.776;37.544;2023-12-20T05:37:56;4.47;;;1.53;;
74503;SDS011;62988;55.776;37.544;2023-12-20T05:40:21;2.73;;;0.97;;
74503;SDS011;62988;55.776;37.544;2023-12-20T05:42:46;3.93;;;1.70;;
74503;SDS011;62988;55.776;37.544;2023-12-20T05:45:14;4.10;;;1.60;;
74503;SDS011;62988;55.776;37.544;2023-12-20T05:47:39;2.60;;;0.98;;
74503;SDS011;62988;55.776;37.544;2023-12-20T05:50:05;4.27;;;1.10;;
74503;SDS011;62988;55.776;37.544;2023-12-20T05:52:30;4.85;;;1.50;;
74503;SDS011;62988;55.776;37.544;2023-12-20T05:54:55;6.87;;;2.33;;
74503;SDS011;62988;55.776;37.544;2023-12-20T05:57:23;4.43;;;1.77;;
74503;SDS011;62988;55.776;37.544;2023-12-20T05:59:48;3.40;;;1.50;;
74503;SDS011;62988;55.776;37.544;2023-12-20T06:02:13;5.20;;;1.20;;
74503;SDS011;62988;55.776;37.544;2023-12-20T06:04:41;6.50;;;2.13;;
74503;SDS011;62988;55.776;37.544;2023-12-20T06:07:07;9.18;;;1.85;;
74503;SDS011;62988;55.776;37.544;2023-12-20T06:09:32;6.97;;;2.13;;
74503;SDS011;62988;55.776;37.544;2023-12-20T06:11:57;5.07;;;1.53;;
74503;SDS011;62988;55.776;37.544;2023-12-20T06:14:22;7.03;;;1.87;;
74503;SDS011;62988;55.776;37.544;2023-12-20T06:16:48;6.60;;;2.00;;
74503;SDS011;62988;55.776;37.544;2023-12-20T06:19:13;5.57;;;1.77;;
74503;SDS011;62988;55.776;37.544;2023-12-20T06:21:39;6.68;;;2.38;;
74503;SDS011;62988;55.776;37.544;2023-12-20T06:24:04;5.57;;;2.23;;
74503;SDS011;62988;55.776;37.544;2023-12-20T06:26:30;5.22;;;1.95;;
74503;SDS011;62988;55.776;37.544;2023-12-20T06:28:55;6.93;;;2.20;;
74503;SDS011;62988;55.776;37.544;2023-12-20T06:31:20;3.73;;;1.70;;
74503;SDS011;62988;55.776;37.544;2023-12-20T06:33:46;5.80;;;1.67;;
74503;SDS011;62988;55.776;37.544;2023-12-20T06:36:11;5.32;;;1.80;;
74503;SDS011;62988;55.776;37.544;2023-12-20T06:38:38;4.32;;;1.67;;
74503;SDS011;62988;55.776;37.544;2023-12-20T06:41:03;3.65;;;1.50;;
74503;SDS011;62988;55.776;37.544;2023-12-20T06:43:29;5.37;;;1.50;;
74503;SDS011;62988;55.776;37.544;2023-12-20T06:45:55;6.50;;;1.45;;
74503;SDS011;62988;55.776;37.544;2023-12-20T06:48:20;5.27;;;1.73;;
74503;SDS011;62988;55.776;37.544;2023-12-20T06:50:46;5.87;;;2.20;;
74503;SDS011;62988;55.776;37.544;2023-12-20T06:53:11;4.57;;;1.80;;
74503;SDS011;62988;55.776;37.544;2023-12-20T06:55:38;4.97;;;1.30;;
74503;SDS011;62988;55.776;37.544;2023-12-20T06:58:03;3.53;;;1.13;;
74503;SDS011;62988;55.776;37.544;2023-12-20T07:00:30;11.65;;;1.77;;
74503;SDS011;62988;55.776;37.544;2023-12-20T07:02:55;8.18;;;1.52;;
74503;SDS011;62988;55.776;37.544;2023-12-20T07:05:21;3.53;;;1.30;;
74503;SDS011;62988;55.776;37.544;2023-12-20T07:07:46;3.60;;;1.67;;
74503;SDS011;62988;55.776;37.544;2023-12-20T07:10:12;4.03;;;1.50;;
74503;SDS011;62988;55.776;37.544;2023-12-20T07:12:37;2.35;;;1.33;;
74503;SDS011;62988;55.776;37.544;2023-12-20T07:15:03;4.87;;;1.43;;
74503;SDS011;62988;55.776;37.544;2023-12-20T07:17:28;4.75;;;2.00;;
74503;SDS011;62988;55.776;37.544;2023-12-20T07:19:54;3.73;;;1.60;;
74503;SDS011;62988;55.776;37.544;2023-12-20T07:22:19;3.10;;;1.27;;
74503;SDS011;62988;55.776;37.544;2023-12-20T07:24:44;6.27;;;2.00;;
74503;SDS011;62988;55.776;37.544;2023-12-20T07:27:11;5.35;;;1.35;;
74503;SDS011;62988;55.776;37.544;2023-12-20T07:29:36;5.23;;;1.70;;
74503;SDS011;62988;55.776;37.544;2023-12-20T07:32:01;3.53;;;1.30;;
74503;SDS011;62988;55.776;37.544;2023-12-20T07:34:27;5.80;;;1.43;;
74503;SDS011;62988;55.776;37.544;2023-12-20T07:36:52;5.57;;;1.70;;
74503;SDS011;62988;55.776;37.544;2023-12-20T07:39:17;5.00;;;1.50;;
74503;SDS011;62988;55.776;37.544;2023-12-20T07:41:43;4.18;;;1.42;;
74503;SDS011;62988;55.776;37.544;2023-12-20T07:44:09;4.37;;;1.67;;
74503;SDS011;62988;55.776;37.544;2023-12-20T07:46:34;3.40;;;1.20;;
74503;SDS011;62988;55.776;37.544;2023-12-20T07:49:00;3.07;;;1.50;;
74503;SDS011;62988;55.776;37.544;2023-12-20T07:51:25;3.63;;;1.60;;
74503;SDS011;62988;55.776;37.544;2023-12-20T07:53:51;4.83;;;1.83;;
74503;SDS011;62988;55.776;37.544;2023-12-20T07:56:17;6.18;;;1.38;;
74503;SDS011;62988;55.776;37.544;2023-12-20T07:58:42;4.35;;;1.60;;
74503;SDS011;62988;55.776;37.544;2023-12-20T08:01:08;7.95;;;1.33;;
74503;SDS011;62988;55.776;37.544;2023-12-20T08:03:34;6.07;;;0.95;;
74503;SDS011;62988;55.776;37.544;2023-12-20T08:05:59;7.10;;;1.90;;
74503;SDS011;62988;55.776;37.544;2023-12-20T08:08:25;9.20;;;1.90;;
74503;SDS011;62988;55.776;37.544;2023-12-20T08:10:51;6.37;;;2.00;;
74503;SDS011;62988;55.776;37.544;2023-12-20T08:13:16;4.83;;;1.60;;
74503;SDS011;62988;55.776;37.544;2023-12-20T08:15:41;2.73;;;1.20;;
74503;SDS011;62988;55.776;37.544;2023-12-20T08:18:07;3.63;;;1.30;;
74503;SDS011;62988;55.776;37.544;2023-12-20T08:20:32;6.97;;;1.93;;
74503;SDS011;62988;55.776;37.544;2023-12-20T08:22:58;3.93;;;1.80;;
74503;SDS011;62988;55.776;37.544;2023-12-20T08:25:23;3.57;;;1.30;;
74503;SDS011;62988;55.776;37.544;2023-12-20T08:27:48;5.68;;;1.38;;
74503;SDS011;62988;55.776;37.544;2023-12-20T08:30:14;4.32;;;1.70;;
74503;SDS011;62988;55.776;37.544;2023-12-20T08:32:39;5.97;;;1.60;;
74503;SDS011;62988;55.776;37.544;2023-12-20T08:35:04;3.13;;;1.33;;
74503;SDS011;62988;55.776;37.544;2023-12-20T08:37:31;4.85;;;1.35;;
74503;SDS011;62988;55.776;37.544;2023-12-20T08:39:56;3.25;;;1.25;;
74503;SDS011;62988;55.776;37.544;2023-12-20T08:42:22;9.43;;;1.50;;
74503;SDS011;62988;55.776;37.544;2023-12-20T08:44:49;4.00;;;1.95;;
74503;SDS011;62988;55.776;37.544;2023-12-20T08:47:15;7.05;;;1.55;;
74503;SDS011;62988;55.776;37.544;2023-12-20T08:49:41;4.55;;;1.40;;
74503;SDS011;62988;55.776;37.544;2023-12-20T08:52:06;4.90;;;2.13;;
74503;SDS011;62988;55.776;37.544;2023-12-20T08:54:31;5.13;;;1.70;;
74503;SDS011;62988;55.776;37.544;2023-12-20T08:56:57;4.32;;;1.85;;
74503;SDS011;62988;55.776;37.544;2023-12-20T08:59:22;3.00;;;1.27;;
74503;SDS011;62988;55.776;37.544;2023-12-20T09:01:47;3.40;;;1.00;;
74503;SDS011;62988;55.776;37.544;2023-12-20T09:04:13;2.92;;;1.38;;
74503;SDS011;62988;55.776;37.544;2023-12-20T09:06:38;4.77;;;2.03;;
74503;SDS011;62988;55.776;37.544;2023-12-20T09:09:04;4.60;;;2.33;;
74503;SDS011;62988;55.776;37.544;2023-12-20T09:11:29;3.95;;;1.73;;
74503;SDS011;62988;55.776;37.544;2023-12-20T09:13:55;7.35;;;2.00;;
74503;SDS011;62988;55.776;37.544;2023-12-20T09:16:20;5.10;;;1.80;;
74503;SDS011;62988;55.776;37.544;2023-12-20T09:18:46;6.50;;;1.67;;
74503;SDS011;62988;55.776;37.544;2023-12-20T09:21:11;4.40;;;1.80;;
74503;SDS011;62988;55.776;37.544;2023-12-20T09:23:37;4.07;;;1.80;;
74503;SDS011;62988;55.776;37.544;2023-12-20T09:26:03;7.82;;;1.42;;
74503;SDS011;62988;55.776;37.544;2023-12-20T09:28:28;11.10;;;1.92;;
74503;SDS011;62988;55.776;37.544;2023-12-20T09:30:53;6.93;;;2.03;;
74503;SDS011;62988;55.776;37.544;2023-12-20T09:33:19;4.33;;;1.80;;
74503;SDS011;62988;55.776;37.544;2023-12-20T09:35:44;6.63;;;2.10;;
74503;SDS011;62988;55.776;37.544;2023-12-20T09:38:10;4.72;;;1.73;;
74503;SDS011;62988;55.776;37.544;2023-12-20T09:40:36;5.70;;;2.25;;
74503;SDS011;62988;55.776;37.544;2023-12-20T09:43:04;4.82;;;1.85;;
74503;SDS011;62988;55.776;37.544;2023-12-20T09:45:31;3.45;;;1.60;;
74503;SDS011;62988;55.776;37.544;2023-12-20T09:47:56;6.05;;;1.95;;
74503;SDS011;62988;55.776;37.544;2023-12-20T09:50:22;3.53;;;1.58;;
74503;SDS011;62988;55.776;37.544;2023-12-20T09:52:49;4.57;;;1.30;;
74503;SDS011;62988;55.776;37.544;2023-12-20T09:55:15;6.97;;;1.90;;
74503;SDS011;62988;55.776;37.544;2023-12-20T09:57:42;7.25;;;1.90;;
74503;SDS011;62988;55.776;37.544;2023-12-20T10:00:07;6.23;;;1.87;;
74503;SDS011;62988;55.776;37.544;2023-12-20T10:02:33;5.78;;;1.70;;
74503;SDS011;62988;55.776;37.544;2023-12-20T10:04:59;4.60;;;1.48;;
74503;SDS011;62988;55.776;37.544;2023-12-20T10:07:25;6.97;;;1.75;;
74503;SDS011;62988;55.776;37.544;2023-12-20T10:09:51;2.85;;;1.23;;
74503;SDS011;62988;55.776;37.544;2023-12-20T10:12:19;4.65;;;1.75;;
74503;SDS011;62988;55.776;37.544;2023-12-20T10:14:44;4.30;;;1.83;;
74503;SDS011;62988;55.776;37.544;2023-12-20T10:17:09;5.35;;;1.95;;
74503;SDS011;62988;55.776;37.544;2023-12-20T10:19:37;4.25;;;1.42;;
74503;SDS011;62988;55.776;37.544;2023-12-20T10:22:04;4.07;;;1.40;;
74503;SDS011;62988;55.776;37.544;2023-12-20T10:24:29;3.65;;;1.10;;
74503;SDS011;62988;55.776;37.544;2023-12-20T10:27:04;3.83;;;1.30;;
74503;SDS011;62988;55.776;37.544;2023-12-20T10:29:36;3.55;;;1.40;;
74503;SDS011;62988;55.776;37.544;2023-12-20T10:34:45;3.38;;;1.27;;
74503;SDS011;62988;55.776;37.544;2023-12-20T10:37:10;3.20;;;1.27;;
74503;SDS011;62988;55.776;37.544;2023-12-20T10:39:36;3.23;;;1.40;;
74503;SDS011;62988;55.776;37.544;2023-12-20T10:42:01;5.95;;;1.50;;
74503;SDS011;62988;55.776;37.544;2023-12-20T10:44:27;3.25;;;1.17;;
74503;SDS011;62988;55.776;37.544;2023-12-20T10:46:53;3.88;;;1.42;;
74503;SDS011;62988;55.776;37.544;2023-12-20T10:51:48;3.53;;;1.37;;
74503;SDS011;62988;55.776;37.544;2023-12-20T10:54:13;3.25;;;1.20;;
74503;SDS011;62988;55.776;37.544;2023-12-20T10:56:39;2.63;;;1.10;;
74503;SDS011;62988;55.776;37.544;2023-12-20T10:59:05;2.22;;;0.98;;
74503;SDS011;62988;55.776;37.544;2023-12-20T11:01:31;5.07;;;1.38;;
74503;SDS011;62988;55.776;37.544;2023-12-20T11:03:57;4.40;;;1.38;;
74503;SDS011;62988;55.776;37.544;2023-12-20T11:14:06;3.47;;;1.40;;
74503;SDS011;62988;55.776;37.544;2023-12-20T11:16:36;3.88;;;1.30;;
74503;SDS011;62988;55.776;37.544;2023-12-20T11:19:05;4.20;;;1.38;;
74503;SDS011;62988;55.776;37.544;2023-12-20T11:21:30;3.95;;;1.27;;
74503;SDS011;62988;55.776;37.544;2023-12-20T11:23:56;2.57;;;1.00;;
74503;SDS011;62988;55.776;37.544;2023-12-20T11:26:28;2.60;;;1.20;;
74503;SDS011;62988;55.776;37.544;2023-12-20T11:29:57;2.40;;;1.20;;
74503;SDS011;62988;55.776;37.544;2023-12-20T11:31:51;4.40;;;1.45;;
74503;SDS011;62988;55.776;37.544;2023-12-20T11:34:16;3.93;;;1.53;;
74503;SDS011;62988;55.776;37.544;2023-12-20T11:36:42;2.63;;;0.85;;
74503;SDS011;62988;55.776;37.544;2023-12-20T11:39:07;3.57;;;1.30;;
74503;SDS011;62988;55.776;37.544;2023-12-20T11:41:35;4.85;;;1.50;;
74503;SDS011;62988;55.776;37.544;2023-12-20T11:44:01;4.03;;;1.30;;
74503;SDS011;62988;55.776;37.544;2023-12-20T11:46:28;2.95;;;1.20;;
74503;SDS011;62988;55.776;37.544;2023-12-20T11:48:54;4.20;;;1.17;;
74503;SDS011;62988;55.776;37.544;2023-12-20T11:51:19;3.35;;;1.13;;
74503;SDS011;62988;55.776;37.544;2023-12-20T11:53:44;3.87;;;1.50;;
74503;SDS011;62988;55.776;37.544;2023-12-20T11:56:10;4.00;;;0.97;;
74503;SDS011;62988;55.776;37.544;2023-12-20T11:58:36;3.88;;;1.60;;
74503;SDS011;62988;55.776;37.544;2023-12-20T12:01:01;7.03;;;1.70;;
74503;SDS011;62988;55.776;37.544;2023-12-20T12:03:29;4.10;;;1.50;;
74503;SDS011;62988;55.776;37.544;2023-12-20T12:05:55;6.60;;;1.67;;
74503;SDS011;62988;55.776;37.544;2023-12-20T12:08:20;4.35;;;1.52;;
74503;SDS011;62988;55.776;37.544;2023-12-20T12:10:46;8.90;;;1.10;;
74503;SDS011;62988;55.776;37.544;2023-12-20T12:13:11;5.90;;;1.42;;
74503;SDS011;62988;55.776;37.544;2023-12-20T12:15:36;6.57;;;1.80;;
74503;SDS011;62988;55.776;37.544;2023-12-20T12:18:02;3.92;;;1.27;;
74503;SDS011;62988;55.776;37.544;2023-12-20T12:20:28;5.20;;;1.50;;
74503;SDS011;62988;55.776;37.544;2023-12-20T12:23:03;8.57;;;1.67;;
74503;SDS011;62988;55.776;37.544;2023-12-20T12:25:33;3.60;;;1.40;;
74503;SDS011;62988;55.776;37.544;2023-12-20T12:27:59;5.93;;;1.55;;
74503;SDS011;62988;55.776;37.544;2023-12-20T12:30:25;5.18;;;1.50;;
74503;SDS011;62988;55.776;37.544;2023-12-20T12:32:51;3.47;;;1.40;;
74503;SDS011;62988;55.776;37.544;2023-12-20T12:35:17;3.53;;;1.80;;
74503;SDS011;62988;55.776;37.544;2023-12-20T12:37:42;9.68;;;2.35;;
74503;SDS011;62988;55.776;37.544;2023-12-20T12:40:11;6.80;;;1.88;;
74503;SDS011;62988;55.776;37.544;2023-12-20T12:42:38;14.35;;;2.17;;
74503;SDS011;62988;55.776;37.544;2023-12-20T12:45:03;6.95;;;2.17;;
74503;SDS011;62988;55.776;37.544;2023-12-20T12:47:29;5.10;;;1.88;;
74503;SDS011;62988;55.776;37.544;2023-12-20T12:49:54;14.55;;;2.22;;
74503;SDS011;62988;55.776;37.544;2023-12-20T12:52:20;5.78;;;2.40;;
74503;SDS011;62988;55.776;37.544;2023-12-20T12:54:45;4.07;;;1.80;;
74503;SDS011;62988;55.776;37.544;2023-12-20T12:57:12;5.47;;;1.95;;
74503;SDS011;62988;55.776;37.544;2023-12-20T12:59:37;11.77;;;2.08;;
74503;SDS011;62988;55.776;37.544;2023-12-20T13:02:02;5.50;;;1.80;;
74503;SDS011;62988;55.776;37.544;2023-12-20T13:04:28;8.68;;;2.47;;
74503;SDS011;62988;55.776;37.544;2023-12-20T13:06:54;7.53;;;2.23;;
74503;SDS011;62988;55.776;37.544;2023-12-20T13:09:20;5.63;;;1.83;;
74503;SDS011;62988;55.776;37.544;2023-12-20T13:11:45;7.03;;;2.00;;
74503;SDS011;62988;55.776;37.544;2023-12-20T13:14:11;7.13;;;2.33;;
74503;SDS011;62988;55.776;37.544;2023-12-20T13:16:40;6.55;;;1.92;;
74503;SDS011;62988;55.776;37.544;2023-12-20T13:19:06;6.00;;;2.35;;
74503;SDS011;62988;55.776;37.544;2023-12-20T13:21:31;8.27;;;2.43;;
74503;SDS011;62988;55.776;37.544;2023-12-20T13:23:56;3.50;;;1.80;;
74503;SDS011;62988;55.776;37.544;2023-12-20T13:26:22;7.90;;;1.93;;
74503;SDS011;62988;55.776;37.544;2023-12-20T13:28:47;3.73;;;1.17;;
74503;SDS011;62988;55.776;37.544;2023-12-20T13:31:12;2.93;;;1.13;;
74503;SDS011;62988;55.776;37.544;2023-12-20T13:33:38;3.47;;;1.40;;
74503;SDS011;62988;55.776;37.544;2023-12-20T13:36:03;8.23;;;1.83;;
74503;SDS011;62988;55.776;37.544;2023-12-20T13:38:31;4.82;;;1.63;;
74503;SDS011;62988;55.776;37.544;2023-12-20T13:40:57;5.45;;;2.20;;
74503;SDS011;62988;55.776;37.544;2023-12-20T13:43:23;4.47;;;1.52;;
74503;SDS011;62988;55.776;37.544;2023-12-20T13:45:49;5.60;;;1.60;;
74503;SDS011;62988;55.776;37.544;2023-12-20T13:48:15;3.92;;;1.55;;
74503;SDS011;62988;55.776;37.544;2023-12-20T13:50:40;4.78;;;2.00;;
74503;SDS011;62988;55.776;37.544;2023-12-20T13:53:06;8.17;;;2.00;;
74503;SDS011;62988;55.776;37.544;2023-12-20T13:55:31;7.72;;;1.70;;
74503;SDS011;62988;55.776;37.544;2023-12-20T13:57:57;4.43;;;1.73;;
74503;SDS011;62988;55.776;37.544;2023-12-20T14:00:22;3.78;;;1.75;;
74503;SDS011;62988;55.776;37.544;2023-12-20T14:02:48;5.53;;;1.90;;
74503;SDS011;62988;55.776;37.544;2023-12-20T14:05:14;7.22;;;1.60;;
74503;SDS011;62988;55.776;37.544;2023-12-20T14:07:42;4.53;;;1.70;;
74503;SDS011;62988;55.776;37.544;2023-12-20T14:10:10;3.58;;;1.27;;
74503;SDS011;62988;55.776;37.544;2023-12-20T14:12:35;9.13;;;1.48;;
74503;SDS011;62988;55.776;37.544;2023-12-20T14:15:01;3.72;;;1.58;;
74503;SDS011;62988;55.776;37.544;2023-12-20T14:17:26;4.15;;;1.20;;
74503;SDS011;62988;55.776;37.544;2023-12-20T14:19:52;5.37;;;1.60;;
74503;SDS011;62988;55.776;37.544;2023-12-20T14:22:19;6.78;;;1.92;;
74503;SDS011;62988;55.776;37.544;2023-12-20T14:24:45;6.73;;;1.90;;
74503;SDS011;62988;55.776;37.544;2023-12-20T14:27:11;5.68;;;1.85;;
74503;SDS011;62988;55.776;37.544;2023-12-20T14:29:36;11.95;;;2.10;;
74503;SDS011;62988;55.776;37.544;2023-12-20T14:32:03;6.55;;;1.73;;
74503;SDS011;62988;55.776;37.544;2023-12-20T14:34:28;5.53;;;2.10;;
74503;SDS011;62988;55.776;37.544;2023-12-20T14:36:53;6.82;;;2.10;;